createdAt,value
2018-06-19T00:00:36.207Z,0
2018-06-19T00:01:36.688Z,0
2018-06-19T00:02:36.687Z,0
2018-06-19T00:03:36.456Z,0
2018-06-19T00:04:36.960Z,0
2018-06-19T00:05:36.445Z,0
2018-06-19T00:06:36.204Z,0
2018-06-19T00:07:36.953Z,0
2018-06-19T00:08:36.200Z,0
2018-06-19T00:09:36.696Z,0
2018-06-19T00:10:36.466Z,0
2018-06-19T00:11:36.946Z,0
2018-06-19T00:12:36.696Z,0
2018-06-19T00:13:36.457Z,0
2018-06-19T00:14:36.709Z,0
2018-06-19T00:15:36.708Z,0
2018-06-19T00:16:36.215Z,0
2018-06-19T00:17:36.695Z,0
2018-06-19T00:18:36.707Z,0
2018-06-19T00:19:36.439Z,0
2018-06-19T00:20:36.445Z,0
2018-06-19T00:21:36.702Z,0
2018-06-19T00:22:36.473Z,0
2018-06-19T00:23:36.734Z,0
2018-06-19T00:24:36.703Z,0
2018-06-19T00:25:36.957Z,0
2018-06-19T00:26:36.466Z,0
2018-06-19T00:27:36.205Z,0
2018-06-19T00:28:36.469Z,0
2018-06-19T00:29:36.714Z,0
2018-06-19T00:30:36.716Z,0
2018-06-19T00:31:36.748Z,0
2018-06-19T00:32:36.716Z,0
2018-06-19T00:33:36.991Z,0
2018-06-19T00:34:36.704Z,0
2018-06-19T00:35:36.971Z,0
2018-06-19T00:36:36.446Z,0
2018-06-19T00:37:36.733Z,0
2018-06-19T00:38:36.721Z,0
2018-06-19T00:39:36.469Z,0
2018-06-19T00:40:36.713Z,0
2018-06-19T00:41:36.473Z,0
2018-06-19T00:42:36.742Z,0
2018-06-19T00:43:36.467Z,0
2018-06-19T00:44:36.712Z,0
2018-06-19T00:45:36.766Z,0
2018-06-19T00:46:36.463Z,0
2018-06-19T00:47:36.507Z,0
2018-06-19T00:48:36.466Z,0
2018-06-19T00:49:36.713Z,0
2018-06-19T00:50:36.708Z,0
2018-06-19T00:51:37.011Z,0
2018-06-19T00:52:36.471Z,0
2018-06-19T00:53:36.223Z,0
2018-06-19T00:54:36.219Z,0
2018-06-19T00:55:36.712Z,0
2018-06-19T00:56:37.178Z,0
2018-06-19T00:57:36.478Z,0
2018-06-19T00:58:36.747Z,0
2018-06-19T00:59:36.716Z,0
2018-06-19T01:00:36.504Z,0
2018-06-19T01:01:36.486Z,0
2018-06-19T01:02:36.993Z,0
2018-06-19T01:03:36.241Z,0
2018-06-19T01:04:36.718Z,0
2018-06-19T01:05:36.996Z,0
2018-06-19T01:06:36.986Z,0
2018-06-19T01:07:36.487Z,0
2018-06-19T01:08:37.008Z,0
2018-06-19T01:09:36.477Z,0
2018-06-19T01:10:36.741Z,0
2018-06-19T01:11:38.075Z,0
2018-06-19T01:12:36.725Z,0
2018-06-19T01:13:36.847Z,0
2018-06-19T01:14:36.794Z,0
2018-06-19T01:15:36.731Z,0
2018-06-19T01:16:36.738Z,0
2018-06-19T01:17:36.743Z,0
2018-06-19T01:18:36.743Z,0
2018-06-19T01:19:36.729Z,0
2018-06-19T01:20:36.601Z,0
2018-06-19T01:21:36.499Z,0
2018-06-19T01:22:36.478Z,0
2018-06-19T01:23:36.496Z,0
2018-06-19T01:24:36.739Z,0
2018-06-19T01:25:36.247Z,0
2018-06-19T01:26:36.744Z,0
2018-06-19T01:27:36.752Z,0
2018-06-19T01:28:36.902Z,0
2018-06-19T01:29:36.494Z,0
2018-06-19T01:30:36.745Z,0
2018-06-19T01:31:36.740Z,0
2018-06-19T01:32:36.997Z,0
2018-06-19T01:33:36.496Z,0
2018-06-19T01:34:36.756Z,0
2018-06-19T01:35:36.780Z,0
2018-06-19T01:36:36.490Z,0
2018-06-19T01:37:37.008Z,0
2018-06-19T01:38:36.757Z,0
2018-06-19T01:39:36.489Z,0
2018-06-19T01:40:37.017Z,0
2018-06-19T01:41:36.490Z,0
2018-06-19T01:42:36.778Z,0
2018-06-19T01:43:36.510Z,0
2018-06-19T01:44:36.736Z,0
2018-06-19T01:45:36.500Z,0
2018-06-19T01:46:37.004Z,0
2018-06-19T01:47:36.748Z,0
2018-06-19T01:48:37.012Z,0
2018-06-19T01:49:36.231Z,0
2018-06-19T01:50:37.004Z,0
2018-06-19T01:51:36.765Z,0
2018-06-19T01:52:36.742Z,0
2018-06-19T01:53:37.012Z,0
2018-06-19T01:54:37.004Z,0
2018-06-19T01:55:36.501Z,0
2018-06-19T01:56:36.496Z,0
2018-06-19T01:57:36.511Z,0
2018-06-19T01:58:36.783Z,0
2018-06-19T01:59:36.765Z,0
2018-06-19T02:00:37.015Z,0
2018-06-19T02:01:36.509Z,0
2018-06-19T02:02:36.741Z,0
2018-06-19T02:03:36.750Z,0
2018-06-19T02:04:36.778Z,0
2018-06-19T02:05:36.753Z,0
2018-06-19T02:06:37.004Z,0
2018-06-19T02:07:36.757Z,0
2018-06-19T02:08:36.524Z,0
2018-06-19T02:09:36.504Z,0
2018-06-19T02:10:36.747Z,0
2018-06-19T02:11:36.749Z,0
2018-06-19T02:12:36.757Z,0
2018-06-19T02:13:36.271Z,0
2018-06-19T02:14:36.757Z,0
2018-06-19T02:15:37.014Z,0
2018-06-19T02:16:36.257Z,0
2018-06-19T02:17:36.511Z,0
2018-06-19T02:18:36.573Z,0
2018-06-19T02:19:36.836Z,0
2018-06-19T02:20:36.767Z,0
2018-06-19T02:21:37.003Z,0
2018-06-19T02:22:37.004Z,0
2018-06-19T02:23:37.031Z,0
2018-06-19T02:24:36.778Z,0
2018-06-19T02:25:36.263Z,0
2018-06-19T02:26:36.497Z,0
2018-06-19T02:27:36.775Z,0
2018-06-19T02:28:36.517Z,0
2018-06-19T02:29:36.763Z,0
2018-06-19T02:30:37.014Z,0
2018-06-19T02:31:37.829Z,4
2018-06-19T02:32:36.511Z,0
2018-06-19T02:33:36.816Z,0
2018-06-19T02:34:36.776Z,0
2018-06-19T02:35:36.771Z,4
2018-06-19T02:36:36.783Z,4
2018-06-19T02:37:36.524Z,4
2018-06-19T02:38:37.025Z,0
2018-06-19T02:39:36.257Z,0
2018-06-19T02:40:36.762Z,4
2018-06-19T02:41:37.014Z,4
2018-06-19T02:42:37.030Z,0
2018-06-19T02:43:36.518Z,4
2018-06-19T02:44:36.765Z,4
2018-06-19T02:45:36.514Z,4
2018-06-19T02:46:36.777Z,8
2018-06-19T02:47:37.844Z,4
2018-06-19T02:48:37.137Z,4
2018-06-19T02:49:36.781Z,8
2018-06-19T02:50:37.039Z,8
2018-06-19T02:51:37.095Z,8
2018-06-19T02:52:36.810Z,12
2018-06-19T02:53:37.031Z,12
2018-06-19T02:54:36.518Z,12
2018-06-19T02:55:36.520Z,16
2018-06-19T02:56:36.784Z,16
2018-06-19T02:57:36.779Z,20
2018-06-19T02:58:37.026Z,20
2018-06-19T02:59:36.779Z,28
2018-06-19T03:00:36.951Z,28
2018-06-19T03:01:37.039Z,36
2018-06-19T03:02:36.512Z,36
2018-06-19T03:03:39.414Z,36
2018-06-19T03:04:36.768Z,44
2018-06-19T03:05:36.776Z,44
2018-06-19T03:06:37.021Z,48
2018-06-19T03:07:36.780Z,52
2018-06-19T03:08:36.784Z,60
2018-06-19T03:09:36.788Z,64
2018-06-19T03:10:36.777Z,68
2018-06-19T03:11:36.784Z,76
2018-06-19T03:12:36.528Z,84
2018-06-19T03:13:37.035Z,88
2018-06-19T03:14:36.760Z,96
2018-06-19T03:15:37.026Z,100
2018-06-19T03:16:36.777Z,108
2018-06-19T03:17:36.773Z,116
2018-06-19T03:18:36.784Z,124
2018-06-19T03:19:37.025Z,132
2018-06-19T03:20:36.514Z,140
2018-06-19T03:21:37.019Z,148
2018-06-19T03:22:37.037Z,168
2018-06-19T03:23:36.271Z,180
2018-06-19T03:24:36.766Z,196
2018-06-19T03:25:36.777Z,212
2018-06-19T03:26:36.500Z,228
2018-06-19T03:27:37.088Z,248
2018-06-19T03:28:36.763Z,264
2018-06-19T03:29:36.758Z,280
2018-06-19T03:30:36.769Z,300
2018-06-19T03:31:36.763Z,316
2018-06-19T03:32:37.022Z,336
2018-06-19T03:33:37.023Z,352
2018-06-19T03:34:36.756Z,376
2018-06-19T03:35:36.769Z,400
2018-06-19T03:36:36.498Z,420
2018-06-19T03:37:37.010Z,444
2018-06-19T03:38:37.013Z,468
2018-06-19T03:39:36.750Z,488
2018-06-19T03:40:36.755Z,512
2018-06-19T03:41:36.999Z,544
2018-06-19T03:42:36.500Z,572
2018-06-19T03:43:36.806Z,608
2018-06-19T03:44:36.752Z,648
2018-06-19T03:45:36.751Z,688
2018-06-19T03:46:37.000Z,724
2018-06-19T03:47:36.500Z,764
2018-06-19T03:48:37.013Z,812
2018-06-19T03:49:36.763Z,852
2018-06-19T03:50:36.752Z,896
2018-06-19T03:51:36.752Z,936
2018-06-19T03:52:36.995Z,976
2018-06-19T03:53:37.010Z,1016
2018-06-19T03:54:37.010Z,1052
2018-06-19T03:55:36.505Z,1088
2018-06-19T03:56:36.784Z,1132
2018-06-19T03:57:37.001Z,1184
2018-06-19T03:58:37.016Z,1236
2018-06-19T03:59:36.516Z,1296
2018-06-19T04:00:37.063Z,1364
2018-06-19T04:01:36.753Z,1416
2018-06-19T04:02:36.755Z,1468
2018-06-19T04:03:37.025Z,1516
2018-06-19T04:04:36.505Z,1556
2018-06-19T04:05:37.011Z,1632
2018-06-19T04:06:37.012Z,1704
2018-06-19T04:07:37.001Z,1696
2018-06-19T04:08:37.022Z,1732
2018-06-19T04:09:36.754Z,1804
2018-06-19T04:10:36.940Z,1908
2018-06-19T04:11:36.772Z,2020
2018-06-19T04:12:36.519Z,2124
2018-06-19T04:13:37.029Z,2192
2018-06-19T04:14:36.781Z,2256
2018-06-19T04:15:37.005Z,2288
2018-06-19T04:16:36.550Z,2284
2018-06-19T04:17:36.502Z,2300
2018-06-19T04:18:36.783Z,2336
2018-06-19T04:19:37.061Z,2400
2018-06-19T04:20:36.792Z,2504
2018-06-19T04:21:36.507Z,2700
2018-06-19T04:22:37.056Z,2832
2018-06-19T04:23:37.039Z,2920
2018-06-19T04:24:36.510Z,2944
2018-06-19T04:25:40.292Z,2952
2018-06-19T04:26:36.764Z,2964
2018-06-19T04:27:36.814Z,2952
2018-06-19T04:28:36.765Z,2936
2018-06-19T04:29:36.517Z,2932
2018-06-19T04:30:36.536Z,2920
2018-06-19T04:31:36.779Z,2932
2018-06-19T04:32:37.030Z,2960
2018-06-19T04:33:36.578Z,2984
2018-06-19T04:34:37.025Z,3024
2018-06-19T04:35:36.767Z,3116
2018-06-19T04:36:36.525Z,3204
2018-06-19T04:37:36.525Z,3216
2018-06-19T04:38:36.796Z,3252
2018-06-19T04:39:36.547Z,3376
2018-06-19T04:40:36.788Z,3856
2018-06-19T04:41:36.767Z,3940
2018-06-19T04:42:36.789Z,4148
2018-06-19T04:43:36.787Z,4460
2018-06-19T04:44:36.513Z,6296
2018-06-19T04:45:36.798Z,5456
2018-06-19T04:46:36.790Z,7080
2018-06-19T04:47:37.025Z,5432
2018-06-19T04:48:37.042Z,4928
2018-06-19T04:49:36.591Z,5084
2018-06-19T04:50:36.799Z,4472
2018-06-19T04:51:36.550Z,4352
2018-06-19T04:52:36.796Z,4304
2018-06-19T04:53:36.816Z,4372
2018-06-19T04:54:37.059Z,4128
2018-06-19T04:55:36.819Z,4192
2018-06-19T04:56:36.545Z,4552
2018-06-19T04:57:36.563Z,4736
2018-06-19T04:58:36.827Z,4560
2018-06-19T04:59:36.559Z,4444
2018-06-19T05:00:36.568Z,4092
2018-06-19T05:01:36.571Z,3928
2018-06-19T05:02:36.813Z,4016
2018-06-19T05:03:36.853Z,4280
2018-06-19T05:04:36.805Z,4516
2018-06-19T05:05:36.826Z,5116
2018-06-19T05:06:36.822Z,5436
2018-06-19T05:07:36.569Z,4192
2018-06-19T05:08:36.816Z,3992
2018-06-19T05:09:36.571Z,4004
2018-06-19T05:10:36.568Z,4440
2018-06-19T05:11:36.834Z,5640
2018-06-19T05:12:36.835Z,5704
2018-06-19T05:13:36.837Z,5736
2018-06-19T05:14:37.114Z,5832
2018-06-19T05:15:36.837Z,5988
2018-06-19T05:16:36.594Z,6120
2018-06-19T05:17:36.836Z,6188
2018-06-19T05:18:37.099Z,6176
2018-06-19T05:19:36.590Z,6220
2018-06-19T05:20:36.841Z,6580
2018-06-19T05:21:36.330Z,15168
2018-06-19T05:22:36.611Z,7920
2018-06-19T05:23:36.605Z,7700
2018-06-19T05:24:36.598Z,7520
2018-06-19T05:25:36.847Z,8144
2018-06-19T05:26:36.863Z,7512
2018-06-19T05:27:36.857Z,6568
2018-06-19T05:28:36.614Z,6896
2018-06-19T05:29:36.891Z,6164
2018-06-19T05:30:36.949Z,5428
2018-06-19T05:31:36.870Z,5112
2018-06-19T05:32:37.117Z,5088
2018-06-19T05:33:36.881Z,5044
2018-06-19T05:34:36.617Z,5176
2018-06-19T05:35:36.630Z,5352
2018-06-19T05:36:36.874Z,5964
2018-06-19T05:37:36.893Z,6516
2018-06-19T05:38:36.890Z,6784
2018-06-19T05:39:36.639Z,6676
2018-06-19T05:40:37.160Z,6212
2018-06-19T05:41:36.640Z,5708
2018-06-19T05:42:36.652Z,5412
2018-06-19T05:43:36.900Z,5196
2018-06-19T05:44:36.399Z,5072
2018-06-19T05:45:36.954Z,5000
2018-06-19T05:46:36.915Z,4912
2018-06-19T05:47:36.913Z,4820
2018-06-19T05:48:36.673Z,4836
2018-06-19T05:49:36.687Z,4804
2018-06-19T05:50:36.916Z,4844
2018-06-19T05:51:36.644Z,4900
2018-06-19T05:52:37.168Z,4944
2018-06-19T05:53:36.950Z,4968
2018-06-19T05:54:36.431Z,4980
2018-06-19T05:55:36.677Z,5016
2018-06-19T05:56:36.690Z,5060
2018-06-19T05:57:37.006Z,5104
2018-06-19T05:58:36.965Z,5120
2018-06-19T05:59:37.212Z,5168
2018-06-19T06:00:36.962Z,5068
2018-06-19T06:01:36.694Z,5104
2018-06-19T06:02:36.735Z,5256
2018-06-19T06:03:36.448Z,5444
2018-06-19T06:04:37.230Z,5616
2018-06-19T06:05:37.497Z,5948
2018-06-19T06:06:36.981Z,6248
2018-06-19T06:07:36.989Z,6576
2018-06-19T06:08:37.237Z,6736
2018-06-19T06:09:36.457Z,6748
2018-06-19T06:10:37.173Z,6732
2018-06-19T06:11:36.969Z,6700
2018-06-19T06:12:36.717Z,6708
2018-06-19T06:13:36.983Z,6580
2018-06-19T06:23:10.724Z,6560
2018-06-19T06:24:10.222Z,6832
2018-06-19T06:25:10.266Z,7032
2018-06-19T06:26:10.461Z,7500
2018-06-19T06:27:10.203Z,7228
2018-06-19T06:28:09.957Z,7264
2018-06-19T06:29:10.212Z,7324
2018-06-19T06:30:10.794Z,7176
2018-06-19T06:31:10.462Z,6996
2018-06-19T06:32:09.960Z,6872
2018-06-19T06:33:10.743Z,6740
2018-06-19T06:34:10.242Z,6752
2018-06-19T06:35:10.889Z,6916
2018-06-19T06:36:10.492Z,7112
2018-06-19T06:37:10.671Z,7288
2018-06-19T06:38:11.035Z,7128
2018-06-19T06:39:10.493Z,6944
2018-06-19T06:40:10.553Z,6796
2018-06-19T06:41:10.492Z,6696
2018-06-19T06:42:10.777Z,6732
2018-06-19T06:43:10.240Z,6944
2018-06-19T06:44:10.259Z,7212
2018-06-19T06:45:10.050Z,7424
2018-06-19T06:46:09.997Z,7580
2018-06-19T06:47:10.260Z,7596
2018-06-19T06:48:10.307Z,7508
2018-06-19T06:49:10.028Z,7264
2018-06-19T06:50:11.019Z,7080
2018-06-19T06:51:10.538Z,7096
2018-06-19T06:52:10.535Z,7056
2018-06-19T06:53:10.778Z,6828
2018-06-19T06:54:10.032Z,6676
2018-06-19T06:55:10.444Z,6932
2018-06-19T06:56:10.534Z,7356
2018-06-19T06:57:10.785Z,7768
2018-06-19T06:58:10.543Z,8076
2018-06-19T06:59:10.813Z,8448
2018-06-19T07:00:10.382Z,8824
2018-06-19T07:01:10.915Z,8944
2018-06-19T07:02:10.576Z,9096
2018-06-19T07:03:10.824Z,9300
2018-06-19T07:04:10.816Z,9712
2018-06-19T07:05:10.999Z,10852
2018-06-19T07:06:10.831Z,11312
2018-06-19T07:07:10.575Z,15152
2018-06-19T07:08:10.584Z,13212
2018-06-19T07:09:10.836Z,16352
2018-06-19T07:10:11.030Z,15292
2018-06-19T07:11:10.327Z,11180
2018-06-19T07:12:10.839Z,11700
2018-06-19T07:13:11.106Z,20416
2018-06-19T07:14:10.904Z,17792
2018-06-19T07:15:10.661Z,19392
2018-06-19T07:16:10.880Z,18720
2018-06-19T07:17:10.878Z,9144
2018-06-19T07:18:10.826Z,8244
2018-06-19T07:19:11.265Z,8176
2018-06-19T07:20:10.923Z,8292
2018-06-19T07:21:10.389Z,8488
2018-06-19T07:22:10.654Z,8712
2018-06-19T07:23:10.903Z,8916
2018-06-19T07:24:10.650Z,9416
2018-06-19T07:25:10.987Z,19968
2018-06-19T07:26:10.530Z,19840
2018-06-19T07:27:10.686Z,19776
2018-06-19T07:28:10.439Z,20192
2018-06-19T07:29:10.702Z,17248
2018-06-19T07:30:10.706Z,17440
2018-06-19T07:31:10.710Z,13728
2018-06-19T07:32:11.182Z,21664
2018-06-19T07:33:10.460Z,22464
2018-06-19T07:34:10.982Z,22464
2018-06-19T07:35:10.484Z,15188
2018-06-19T07:36:10.997Z,10520
2018-06-19T07:37:10.999Z,9804
2018-06-19T07:38:11.175Z,9388
2018-06-19T07:39:10.513Z,9204
2018-06-19T07:40:10.848Z,9180
2018-06-19T07:41:10.504Z,8816
2018-06-19T07:42:10.749Z,8596
2018-06-19T07:43:12.128Z,8408
2018-06-19T07:44:11.058Z,8256
2018-06-19T07:45:11.124Z,8092
2018-06-19T07:46:10.584Z,7892
2018-06-19T07:47:10.818Z,7540
2018-06-19T07:48:10.835Z,7136
2018-06-19T07:49:10.324Z,6704
2018-06-19T07:50:10.599Z,6276
2018-06-19T07:51:11.095Z,5948
2018-06-19T07:52:10.859Z,5768
2018-06-19T07:53:10.854Z,5732
2018-06-19T07:54:10.857Z,5812
2018-06-19T07:55:10.660Z,5844
2018-06-19T07:56:11.120Z,6000
2018-06-19T07:57:10.908Z,6260
2018-06-19T07:58:10.892Z,6488
2018-06-19T07:59:10.653Z,6596
2018-06-19T08:00:11.219Z,6660
2018-06-19T08:01:11.163Z,6804
2018-06-19T08:02:10.395Z,6964
2018-06-19T08:03:10.401Z,7216
2018-06-19T08:04:10.661Z,7684
2018-06-19T08:05:10.988Z,14944
2018-06-19T08:06:10.414Z,16352
2018-06-19T08:07:10.675Z,18112
2018-06-19T08:08:11.184Z,18016
2018-06-19T08:09:10.437Z,18496
2018-06-19T08:10:11.128Z,19008
2018-06-19T08:11:10.969Z,19328
2018-06-19T08:12:11.199Z,19552
2018-06-19T08:13:10.963Z,19488
2018-06-19T08:14:11.802Z,17728
2018-06-19T08:15:11.146Z,17504
2018-06-19T08:16:10.974Z,9520
2018-06-19T08:17:10.997Z,8428
2018-06-19T08:18:11.249Z,7864
2018-06-19T08:19:10.490Z,7288
2018-06-19T08:20:10.661Z,6792
2018-06-19T08:21:11.016Z,6392
2018-06-19T08:22:10.752Z,5988
2018-06-19T08:23:11.008Z,5532
2018-06-19T08:24:11.029Z,5100
2018-06-19T08:25:11.224Z,4728
2018-06-19T08:26:11.301Z,4504
2018-06-19T08:27:11.300Z,4420
2018-06-19T08:28:11.070Z,4528
2018-06-19T08:29:10.810Z,4804
2018-06-19T08:30:11.436Z,5192
2018-06-19T08:31:11.082Z,5524
2018-06-19T08:32:11.328Z,5696
2018-06-19T08:33:11.085Z,5784
2018-06-19T08:34:10.579Z,5856
2018-06-19T08:35:11.185Z,5948
2018-06-19T08:36:11.161Z,6096
2018-06-19T08:37:11.082Z,6284
2018-06-19T08:38:11.109Z,6448
2018-06-19T08:39:10.871Z,6720
2018-06-19T08:40:11.295Z,6964
2018-06-19T08:41:11.140Z,7164
2018-06-19T08:42:11.133Z,7420
2018-06-19T08:43:11.383Z,7808
2018-06-19T08:44:11.139Z,8284
2018-06-19T08:45:11.154Z,8804
2018-06-19T08:46:10.896Z,9324
2018-06-19T08:47:11.150Z,10036
2018-06-19T08:48:11.259Z,11096
2018-06-19T08:49:11.431Z,16992
2018-06-19T08:50:11.233Z,18944
2018-06-19T08:51:11.228Z,19424
2018-06-19T08:52:11.192Z,19744
2018-06-19T08:53:11.194Z,19936
2018-06-19T08:54:10.977Z,17824
2018-06-19T08:55:11.125Z,13244
2018-06-19T08:56:10.954Z,13168
2018-06-19T08:57:11.222Z,12988
2018-06-19T08:58:10.948Z,12756
2018-06-19T08:59:10.985Z,12668
2018-06-19T09:00:11.150Z,12424
2018-06-19T09:01:11.230Z,12140
2018-06-19T09:02:11.513Z,12144
2018-06-19T09:03:10.742Z,12304
2018-06-19T09:04:10.990Z,12324
2018-06-19T09:05:11.344Z,12484
2018-06-19T09:06:11.014Z,12608
2018-06-19T09:07:11.518Z,12864
2018-06-19T09:08:11.013Z,14120
2018-06-19T09:09:11.552Z,13276
2018-06-19T09:10:11.479Z,13344
2018-06-19T09:11:10.781Z,13568
2018-06-19T09:12:10.789Z,13712
2018-06-19T09:13:11.038Z,13028
2018-06-19T09:14:11.331Z,12828
2018-06-19T09:15:10.949Z,12540
2018-06-19T09:16:11.052Z,12192
2018-06-19T09:17:11.317Z,12020
2018-06-19T09:18:11.324Z,11912
2018-06-19T09:19:11.460Z,11816
2018-06-19T09:20:11.654Z,11748
2018-06-19T09:21:11.609Z,11840
2018-06-19T09:22:11.116Z,12020
2018-06-19T09:23:11.406Z,12224
2018-06-19T09:24:11.146Z,12412
2018-06-19T09:25:11.484Z,14168
2018-06-19T09:26:11.517Z,12668
2018-06-19T09:27:11.389Z,12680
2018-06-19T09:28:11.401Z,13396
2018-06-19T09:29:11.653Z,13852
2018-06-19T09:30:11.306Z,13560
2018-06-19T09:31:11.450Z,12796
2018-06-19T09:32:10.904Z,12324
2018-06-19T09:33:11.406Z,12180
2018-06-19T09:34:11.413Z,12332
2018-06-19T09:35:11.355Z,12688
2018-06-19T09:36:11.434Z,13976
2018-06-19T09:37:11.183Z,13920
2018-06-19T09:38:11.203Z,14436
2018-06-19T09:39:11.190Z,11932
2018-06-19T09:40:11.300Z,9908
2018-06-19T09:41:11.475Z,9028
2018-06-19T09:42:11.497Z,8448
2018-06-19T09:43:11.472Z,8052
2018-06-19T09:44:11.208Z,7892
2018-06-19T09:45:11.773Z,7912
2018-06-19T09:46:11.487Z,7976
2018-06-19T09:47:11.331Z,8076
2018-06-19T09:48:11.523Z,8236
2018-06-19T09:49:11.256Z,8416
2018-06-19T09:50:11.629Z,8592
2018-06-19T09:51:11.255Z,8784
2018-06-19T09:52:11.543Z,8948
2018-06-19T09:53:11.521Z,9120
2018-06-19T09:54:11.539Z,9392
2018-06-19T09:55:11.371Z,9760
2018-06-19T09:56:11.542Z,10128
2018-06-19T09:57:11.297Z,10456
2018-06-19T09:58:11.297Z,10708
2018-06-19T09:59:12.015Z,10896
2018-06-19T10:00:11.474Z,11348
2018-06-19T10:01:11.844Z,13000
2018-06-19T10:02:11.858Z,16384
2018-06-19T10:03:11.322Z,11260
2018-06-19T10:04:11.605Z,10704
2018-06-19T10:05:11.636Z,10352
2018-06-19T10:06:11.968Z,10120
2018-06-19T10:07:11.617Z,9992
2018-06-19T10:08:11.353Z,10012
2018-06-19T10:09:11.881Z,10100
2018-06-19T10:10:12.025Z,10184
2018-06-19T10:11:11.626Z,10260
2018-06-19T10:12:12.063Z,10272
2018-06-19T10:13:11.632Z,10292
2018-06-19T10:14:12.040Z,10380
2018-06-19T10:15:11.858Z,10492
2018-06-19T10:16:11.398Z,10604
2018-06-19T10:17:11.381Z,10728
2018-06-19T10:18:11.953Z,10912
2018-06-19T10:19:11.657Z,11132
2018-06-19T10:20:12.154Z,11636
2018-06-19T10:21:11.936Z,16000
2018-06-19T10:22:11.694Z,15872
2018-06-19T10:23:11.420Z,11468
2018-06-19T10:53:46.456Z,14848
2018-06-19T10:54:46.742Z,14236
2018-06-19T10:55:46.989Z,12988
2018-06-19T10:56:47.032Z,11840
2018-06-19T10:57:46.724Z,11396
2018-06-19T10:58:47.004Z,10928
2018-06-19T10:59:46.720Z,10488
2018-06-19T11:00:46.724Z,10188
2018-06-19T11:01:46.475Z,10036
2018-06-19T11:02:46.753Z,10016
2018-06-19T11:03:46.737Z,9984
2018-06-19T11:04:46.992Z,10248
2018-06-19T11:05:46.768Z,10048
2018-06-19T11:06:46.228Z,9756
2018-06-19T11:07:46.503Z,9636
2018-06-19T11:08:47.021Z,9552
2018-06-19T11:09:46.506Z,9492
2018-06-19T11:10:46.514Z,10628
2018-06-19T11:11:46.811Z,10440
2018-06-19T11:12:47.049Z,10208
2018-06-19T11:13:47.042Z,11352
2018-06-19T11:14:46.777Z,10712
2018-06-19T11:15:46.270Z,10912
2018-06-19T11:16:46.788Z,10952
2018-06-19T11:17:47.067Z,10520
2018-06-19T11:18:46.796Z,8992
2018-06-19T11:19:46.813Z,8604
2018-06-19T11:20:46.573Z,9272
2018-06-19T11:21:46.809Z,10252
2018-06-19T11:22:46.852Z,9916
2018-06-19T11:23:47.085Z,9888
2018-06-19T11:24:46.571Z,9952
2018-06-19T11:25:47.361Z,7720
2018-06-19T11:26:47.094Z,7188
2018-06-19T11:27:46.831Z,7200
2018-06-19T11:28:46.842Z,7708
2018-06-19T11:29:46.857Z,9444
2018-06-19T11:30:47.110Z,10240
2018-06-19T11:31:47.103Z,10312
2018-06-19T11:32:46.881Z,10420
2018-06-19T11:33:46.872Z,10224
2018-06-19T11:34:47.148Z,9960
2018-06-19T11:35:47.152Z,10564
2018-06-19T11:36:47.341Z,10704
2018-06-19T11:37:47.163Z,11012
2018-06-19T11:38:47.004Z,10700
2018-06-19T11:39:46.391Z,8436
2018-06-19T11:40:46.419Z,9384
2018-06-19T11:41:46.914Z,11516
2018-06-19T11:42:46.673Z,8752
2018-06-19T11:43:47.173Z,10044
2018-06-19T11:44:47.043Z,9656
2018-06-19T11:45:46.932Z,9572
2018-06-19T11:46:46.946Z,11708
2018-06-19T11:47:47.183Z,12064
2018-06-19T11:48:46.942Z,11968
2018-06-19T11:49:47.203Z,11756
2018-06-19T11:50:46.697Z,9948
2018-06-19T11:51:47.585Z,11252
2018-06-19T11:52:47.217Z,10780
2018-06-19T11:53:47.278Z,12040
2018-06-19T11:54:47.386Z,11536
2018-06-19T11:55:47.008Z,11224
2018-06-19T11:56:46.791Z,10840
2018-06-19T11:57:46.972Z,10208
2018-06-19T11:58:47.007Z,10072
2018-06-19T11:59:47.015Z,10244
2018-06-19T12:00:47.276Z,10304
2018-06-19T12:01:47.345Z,13208
2018-06-19T12:02:47.035Z,13500
2018-06-19T12:03:46.771Z,13536
2018-06-19T12:04:47.023Z,13368
2018-06-19T12:05:47.282Z,13108
2018-06-19T12:06:46.932Z,12896
2018-06-19T12:07:47.041Z,12704
2018-06-19T12:08:47.060Z,12612
2018-06-19T12:09:47.317Z,12660
2018-06-19T12:10:46.822Z,12680
2018-06-19T12:11:47.309Z,12696
2018-06-19T12:12:47.334Z,10656
2018-06-19T12:13:47.112Z,12832
2018-06-19T12:14:47.356Z,12732
2018-06-19T12:15:46.833Z,12404
2018-06-19T12:16:46.844Z,11988
2018-06-19T12:17:47.106Z,11676
2018-06-19T12:18:47.110Z,11192
2018-06-19T12:19:47.381Z,10864
2018-06-19T12:20:47.128Z,10688
2018-06-19T12:21:46.632Z,8404
2018-06-19T12:22:47.371Z,8528
2018-06-19T12:23:47.207Z,10436
2018-06-19T12:24:46.907Z,8648
2018-06-19T12:25:46.898Z,8752
2018-06-19T12:26:47.165Z,8860
2018-06-19T12:27:47.420Z,8940
2018-06-19T12:28:46.925Z,8720
2018-06-19T12:29:47.310Z,8288
2018-06-19T12:30:47.209Z,7896
2018-06-19T12:31:47.447Z,9476
2018-06-19T12:32:47.465Z,9560
2018-06-19T12:33:46.949Z,9488
2018-06-19T12:34:46.964Z,9336
2018-06-19T12:35:46.709Z,9176
2018-06-19T12:36:46.968Z,8984
2018-06-19T12:37:47.244Z,8448
2018-06-19T12:38:47.223Z,8540
2018-06-19T12:39:46.985Z,9680
2018-06-19T12:40:46.989Z,10088
2018-06-19T12:41:47.147Z,10332
2018-06-19T12:42:47.246Z,10336
2018-06-19T12:43:47.009Z,10268
2018-06-19T12:44:47.299Z,8160
2018-06-19T12:45:47.546Z,7992
2018-06-19T12:46:47.140Z,8480
2018-06-19T12:47:47.542Z,7716
2018-06-19T12:48:47.039Z,7460
2018-06-19T12:49:47.622Z,9576
2018-06-19T12:50:47.296Z,10276
2018-06-19T12:51:47.315Z,10528
2018-06-19T12:52:47.570Z,10688
2018-06-19T12:53:47.306Z,10688
2018-06-19T12:54:47.342Z,10496
2018-06-19T12:55:47.330Z,10308
2018-06-19T12:56:46.834Z,9912
2018-06-19T12:57:47.357Z,9340
2018-06-19T12:58:47.110Z,8888
2018-06-19T12:59:47.121Z,8636
2018-06-19T13:00:47.348Z,8648
2018-06-19T13:01:47.440Z,8840
2018-06-19T13:02:46.872Z,9124
2018-06-19T13:03:47.416Z,9348
2018-06-19T13:04:47.198Z,9464
2018-06-19T13:05:46.888Z,9520
2018-06-19T13:06:47.385Z,9532
2018-06-19T13:07:47.394Z,9624
2018-06-19T13:08:47.160Z,9748
2018-06-19T13:09:47.395Z,9732
2018-06-19T13:10:47.274Z,9320
2018-06-19T13:11:47.445Z,9708
2018-06-19T13:12:47.179Z,9956
2018-06-19T13:13:47.172Z,9792
2018-06-19T13:14:47.455Z,10064
2018-06-19T13:15:47.577Z,8248
2018-06-19T13:16:47.461Z,9488
2018-06-19T13:17:47.456Z,8344
2018-06-19T13:18:47.474Z,8092
2018-06-19T13:19:47.461Z,7920
2018-06-19T13:20:47.738Z,7904
2018-06-19T13:21:47.481Z,8172
2018-06-19T13:22:46.985Z,8352
2018-06-19T13:23:47.343Z,8304
2018-06-19T13:24:46.993Z,8360
2018-06-19T13:25:47.764Z,8172
2018-06-19T13:26:47.549Z,7856
2018-06-19T13:27:47.775Z,7552
2018-06-19T13:28:47.503Z,7360
2018-06-19T13:29:47.255Z,7264
2018-06-19T13:30:47.267Z,7248
2018-06-19T13:31:47.533Z,7408
2018-06-19T13:32:47.268Z,7724
2018-06-19T13:33:47.318Z,7760
2018-06-19T13:34:47.819Z,7928
2018-06-19T13:35:47.820Z,8152
2018-06-19T13:36:47.292Z,8220
2018-06-19T13:37:47.308Z,9864
2018-06-19T13:38:47.552Z,9964
2018-06-19T13:39:47.315Z,8088
2018-06-19T13:40:47.828Z,8020
2018-06-19T13:41:47.585Z,8096
2018-06-19T13:42:47.830Z,8420
2018-06-19T13:43:47.844Z,10364
2018-06-19T13:44:47.338Z,10352
2018-06-19T13:45:47.602Z,10252
2018-06-19T13:46:47.360Z,10052
2018-06-19T13:47:47.372Z,9648
2018-06-19T13:48:48.654Z,9240
2018-06-19T13:49:47.807Z,8800
2018-06-19T13:50:47.626Z,8448
2018-06-19T13:51:47.641Z,8012
2018-06-19T13:52:47.649Z,7336
2018-06-19T13:53:47.656Z,6644
2018-06-19T13:54:47.393Z,7316
2018-06-19T13:55:47.648Z,6484
2018-06-19T13:56:47.681Z,6528
2018-06-19T13:57:47.765Z,6412
2018-06-19T13:58:47.659Z,6356
2018-06-19T13:59:47.666Z,6620
2018-06-19T14:00:47.699Z,6688
2018-06-19T14:01:47.965Z,6952
2018-06-19T14:02:47.984Z,6592
2018-06-19T14:03:47.195Z,6232
2018-06-19T14:04:47.716Z,5700
2018-06-19T14:05:47.454Z,5388
2018-06-19T14:06:47.957Z,5172
2018-06-19T14:07:48.674Z,5080
2018-06-19T14:08:47.463Z,4952
2018-06-19T14:09:47.994Z,5952